sensor_id;sensor_type;location;lat;lon;timestamp;temperature;humidity
47090;DHT22;32840;52.516;13.294;2022-10-16T00:00:19;15.80;99.90
47090;DHT22;32840;52.516;13.294;2022-10-16T00:03:05;15.80;99.90
47090;DHT22;32840;52.516;13.294;2022-10-16T00:05:50;15.90;99.90
47090;DHT22;32840;52.516;13.294;2022-10-16T00:08:36;15.90;99.90
47090;DHT22;32840;52.516;13.294;2022-10-16T00:11:27;15.90;99.90
47090;DHT22;32840;52.516;13.294;2022-10-16T00:14:13;15.90;99.90
47090;DHT22;32840;52.516;13.294;2022-10-16T00:16:58;15.90;99.90
47090;DHT22;32840;52.516;13.294;2022-10-16T00:19:43;16.00;99.90
47090;DHT22;32840;52.516;13.294;2022-10-16T00:22:28;16.00;99.90
47090;DHT22;32840;52.516;13.294;2022-10-16T00:25:13;15.90;99.90
47090;DHT22;32840;52.516;13.294;2022-10-16T00:27:59;16.00;99.90
47090;DHT22;32840;52.516;13.294;2022-10-16T00:30:45;16.00;99.90
47090;DHT22;32840;52.516;13.294;2022-10-16T00:33:30;15.90;99.90
47090;DHT22;32840;52.516;13.294;2022-10-16T00:36:21;15.90;99.90
47090;DHT22;32840;52.516;13.294;2022-10-16T00:39:06;15.90;99.90
47090;DHT22;32840;52.516;13.294;2022-10-16T00:41:51;15.90;99.90
47090;DHT22;32840;52.516;13.294;2022-10-16T00:47:34;15.90;99.90
47090;DHT22;32840;52.516;13.294;2022-10-16T00:50:32;15.90;99.90
47090;DHT22;32840;52.516;13.294;2022-10-16T00:53:18;15.90;99.90
47090;DHT22;32840;52.516;13.294;2022-10-16T00:56:03;16.00;99.90
47090;DHT22;32840;52.516;13.294;2022-10-16T00:58:49;15.90;99.90
47090;DHT22;32840;52.516;13.294;2022-10-16T01:01:34;16.00;99.90
47090;DHT22;32840;52.516;13.294;2022-10-16T01:04:19;15.90;99.90
47090;DHT22;32840;52.516;13.294;2022-10-16T01:07:26;15.90;99.90
47090;DHT22;32840;52.516;13.294;2022-10-16T01:10:22;15.90;99.90
47090;DHT22;32840;52.516;13.294;2022-10-16T01:22:59;16.00;99.90
47090;DHT22;32840;52.516;13.294;2022-10-16T01:28:56;16.00;99.90
47090;DHT22;32840;52.516;13.294;2022-10-16T01:31:46;15.90;99.90
47090;DHT22;32840;52.516;13.294;2022-10-16T01:34:41;16.00;99.90
47090;DHT22;32840;52.516;13.294;2022-10-16T01:37:59;16.00;99.90
47090;DHT22;32840;52.516;13.294;2022-10-16T01:40:54;15.90;99.90
47090;DHT22;32840;52.516;13.294;2022-10-16T01:43:49;16.00;99.90
47090;DHT22;32840;52.516;13.294;2022-10-16T01:46:39;16.00;99.90
47090;DHT22;32840;52.516;13.294;2022-10-16T01:49:30;15.90;99.90
47090;DHT22;32840;52.516;13.294;2022-10-16T01:52:19;15.90;99.90
47090;DHT22;32840;52.516;13.294;2022-10-16T01:55:08;15.90;99.90
47090;DHT22;32840;52.516;13.294;2022-10-16T01:57:55;15.90;99.90
47090;DHT22;32840;52.516;13.294;2022-10-16T02:00:43;15.90;99.90
47090;DHT22;32840;52.516;13.294;2022-10-16T02:03:29;15.90;99.90
47090;DHT22;32840;52.516;13.294;2022-10-16T02:06:13;15.90;99.90
47090;DHT22;32840;52.516;13.294;2022-10-16T02:08:59;15.90;99.90
47090;DHT22;32840;52.516;13.294;2022-10-16T02:11:44;15.90;99.90
47090;DHT22;32840;52.516;13.294;2022-10-16T02:14:30;16.00;99.90
47090;DHT22;32840;52.516;13.294;2022-10-16T02:17:17;15.90;99.90
47090;DHT22;32840;52.516;13.294;2022-10-16T02:20:03;15.90;99.90
47090;DHT22;32840;52.516;13.294;2022-10-16T02:22:50;15.90;99.90
47090;DHT22;32840;52.516;13.294;2022-10-16T02:25:40;15.90;99.90
47090;DHT22;32840;52.516;13.294;2022-10-16T02:28:32;15.90;99.90
47090;DHT22;32840;52.516;13.294;2022-10-16T02:31:23;15.90;99.90
47090;DHT22;32840;52.516;13.294;2022-10-16T02:34:12;16.00;99.90
47090;DHT22;32840;52.516;13.294;2022-10-16T02:36:58;15.90;99.90
47090;DHT22;32840;52.516;13.294;2022-10-16T02:39:44;15.90;99.90
47090;DHT22;32840;52.516;13.294;2022-10-16T02:42:34;15.90;99.90
47090;DHT22;32840;52.516;13.294;2022-10-16T02:45:19;15.90;99.90
47090;DHT22;32840;52.516;13.294;2022-10-16T02:48:05;16.00;99.90
47090;DHT22;32840;52.516;13.294;2022-10-16T02:50:50;15.90;99.90
47090;DHT22;32840;52.516;13.294;2022-10-16T02:53:35;15.90;99.90
47090;DHT22;32840;52.516;13.294;2022-10-16T02:56:20;15.90;99.90
47090;DHT22;32840;52.516;13.294;2022-10-16T02:59:05;15.90;99.90
47090;DHT22;32840;52.516;13.294;2022-10-16T03:01:50;15.90;99.90
47090;DHT22;32840;52.516;13.294;2022-10-16T03:04:35;15.80;99.90
47090;DHT22;32840;52.516;13.294;2022-10-16T03:07:20;15.80;99.90
47090;DHT22;32840;52.516;13.294;2022-10-16T03:10:05;15.80;99.90
47090;DHT22;32840;52.516;13.294;2022-10-16T03:12:50;15.80;99.90
47090;DHT22;32840;52.516;13.294;2022-10-16T03:15:35;15.80;99.90
47090;DHT22;32840;52.516;13.294;2022-10-16T03:18:20;15.80;99.90
47090;DHT22;32840;52.516;13.294;2022-10-16T03:21:05;15.80;99.90
47090;DHT22;32840;52.516;13.294;2022-10-16T03:23:50;15.80;99.90
47090;DHT22;32840;52.516;13.294;2022-10-16T03:26:35;15.80;99.90
47090;DHT22;32840;52.516;13.294;2022-10-16T03:29:20;15.70;99.90
47090;DHT22;32840;52.516;13.294;2022-10-16T03:32:05;15.70;99.90
47090;DHT22;32840;52.516;13.294;2022-10-16T03:34:50;15.70;99.90
47090;DHT22;32840;52.516;13.294;2022-10-16T03:37:35;15.70;99.90
47090;DHT22;32840;52.516;13.294;2022-10-16T03:40:20;15.70;99.90
47090;DHT22;32840;52.516;13.294;2022-10-16T03:43:05;15.70;99.90
47090;DHT22;32840;52.516;13.294;2022-10-16T03:45:51;15.60;99.90
47090;DHT22;32840;52.516;13.294;2022-10-16T03:48:35;15.60;99.90
47090;DHT22;32840;52.516;13.294;2022-10-16T03:51:21;15.60;99.90
47090;DHT22;32840;52.516;13.294;2022-10-16T03:54:05;15.60;99.90
47090;DHT22;32840;52.516;13.294;2022-10-16T03:56:51;15.60;99.90
47090;DHT22;32840;52.516;13.294;2022-10-16T03:59:35;15.60;99.90
47090;DHT22;32840;52.516;13.294;2022-10-16T04:02:20;15.70;99.90
47090;DHT22;32840;52.516;13.294;2022-10-16T04:05:06;15.60;99.90
47090;DHT22;32840;52.516;13.294;2022-10-16T04:07:51;15.60;99.90
47090;DHT22;32840;52.516;13.294;2022-10-16T04:10:36;15.60;99.90
47090;DHT22;32840;52.516;13.294;2022-10-16T04:13:20;15.60;99.90
47090;DHT22;32840;52.516;13.294;2022-10-16T04:16:05;15.60;99.90
47090;DHT22;32840;52.516;13.294;2022-10-16T04:18:50;15.60;99.90
47090;DHT22;32840;52.516;13.294;2022-10-16T04:21:36;15.60;99.90
47090;DHT22;32840;52.516;13.294;2022-10-16T04:24:21;15.50;99.90
47090;DHT22;32840;52.516;13.294;2022-10-16T04:27:06;15.50;99.90
47090;DHT22;32840;52.516;13.294;2022-10-16T04:29:51;15.50;99.90
47090;DHT22;32840;52.516;13.294;2022-10-16T04:32:36;15.60;99.90
47090;DHT22;32840;52.516;13.294;2022-10-16T04:35:21;15.60;99.90
47090;DHT22;32840;52.516;13.294;2022-10-16T04:38:07;15.50;99.90
47090;DHT22;32840;52.516;13.294;2022-10-16T04:40:52;15.50;99.90
47090;DHT22;32840;52.516;13.294;2022-10-16T04:43:37;15.50;99.90
47090;DHT22;32840;52.516;13.294;2022-10-16T04:46:22;15.50;99.90
47090;DHT22;32840;52.516;13.294;2022-10-16T04:49:07;15.50;99.90
47090;DHT22;32840;52.516;13.294;2022-10-16T04:51:52;15.40;99.90
47090;DHT22;32840;52.516;13.294;2022-10-16T04:54:37;15.40;99.90
47090;DHT22;32840;52.516;13.294;2022-10-16T04:57:22;15.40;99.90
47090;DHT22;32840;52.516;13.294;2022-10-16T05:00:08;15.40;99.90
47090;DHT22;32840;52.516;13.294;2022-10-16T05:02:53;15.30;99.90
47090;DHT22;32840;52.516;13.294;2022-10-16T05:05:45;15.40;99.90
47090;DHT22;32840;52.516;13.294;2022-10-16T05:08:30;15.30;99.90
47090;DHT22;32840;52.516;13.294;2022-10-16T05:11:15;15.30;99.90
47090;DHT22;32840;52.516;13.294;2022-10-16T05:14:00;15.30;99.90
47090;DHT22;32840;52.516;13.294;2022-10-16T05:16:45;15.30;99.90
47090;DHT22;32840;52.516;13.294;2022-10-16T05:19:32;15.30;99.90
47090;DHT22;32840;52.516;13.294;2022-10-16T05:22:17;15.30;99.90
47090;DHT22;32840;52.516;13.294;2022-10-16T05:25:02;15.30;99.90
47090;DHT22;32840;52.516;13.294;2022-10-16T05:27:48;15.30;99.90
47090;DHT22;32840;52.516;13.294;2022-10-16T05:30:33;15.30;99.90
47090;DHT22;32840;52.516;13.294;2022-10-16T05:33:23;15.40;99.90
47090;DHT22;32840;52.516;13.294;2022-10-16T05:36:09;15.30;99.90
47090;DHT22;32840;52.516;13.294;2022-10-16T05:38:54;15.30;99.90
47090;DHT22;32840;52.516;13.294;2022-10-16T05:41:39;15.40;99.90
47090;DHT22;32840;52.516;13.294;2022-10-16T05:44:24;15.50;99.90
47090;DHT22;32840;52.516;13.294;2022-10-16T05:47:09;15.50;99.90
47090;DHT22;32840;52.516;13.294;2022-10-16T05:49:55;15.50;99.90
47090;DHT22;32840;52.516;13.294;2022-10-16T05:52:40;15.40;99.90
47090;DHT22;32840;52.516;13.294;2022-10-16T05:55:25;15.50;99.90
47090;DHT22;32840;52.516;13.294;2022-10-16T05:58:10;15.40;99.90
47090;DHT22;32840;52.516;13.294;2022-10-16T06:00:56;15.50;99.90
47090;DHT22;32840;52.516;13.294;2022-10-16T06:03:41;15.40;99.90
47090;DHT22;32840;52.516;13.294;2022-10-16T06:06:28;15.50;99.90
47090;DHT22;32840;52.516;13.294;2022-10-16T06:09:12;15.50;99.90
47090;DHT22;32840;52.516;13.294;2022-10-16T06:11:57;15.50;99.90
47090;DHT22;32840;52.516;13.294;2022-10-16T06:14:42;15.50;99.90
47090;DHT22;32840;52.516;13.294;2022-10-16T06:17:27;15.50;99.90
47090;DHT22;32840;52.516;13.294;2022-10-16T06:20:12;15.60;99.90
47090;DHT22;32840;52.516;13.294;2022-10-16T06:22:57;15.60;99.90
47090;DHT22;32840;52.516;13.294;2022-10-16T06:25:43;15.60;99.90
47090;DHT22;32840;52.516;13.294;2022-10-16T06:28:27;15.60;99.90
47090;DHT22;32840;52.516;13.294;2022-10-16T06:31:13;15.60;99.90
47090;DHT22;32840;52.516;13.294;2022-10-16T06:33:58;15.70;99.90
47090;DHT22;32840;52.516;13.294;2022-10-16T06:36:43;15.70;99.90
47090;DHT22;32840;52.516;13.294;2022-10-16T06:39:29;15.70;99.90
47090;DHT22;32840;52.516;13.294;2022-10-16T06:42:13;15.70;99.90
47090;DHT22;32840;52.516;13.294;2022-10-16T06:44:59;15.80;99.90
47090;DHT22;32840;52.516;13.294;2022-10-16T06:47:43;15.80;99.90
47090;DHT22;32840;52.516;13.294;2022-10-16T06:50:28;15.70;99.90
47090;DHT22;32840;52.516;13.294;2022-10-16T06:53:13;15.80;99.90
47090;DHT22;32840;52.516;13.294;2022-10-16T06:56:10;15.80;99.90
47090;DHT22;32840;52.516;13.294;2022-10-16T06:58:55;15.80;99.90
47090;DHT22;32840;52.516;13.294;2022-10-16T07:01:40;15.90;99.90
47090;DHT22;32840;52.516;13.294;2022-10-16T07:04:25;15.90;99.90
47090;DHT22;32840;52.516;13.294;2022-10-16T07:07:10;15.90;99.90
47090;DHT22;32840;52.516;13.294;2022-10-16T07:09:55;16.10;99.90
47090;DHT22;32840;52.516;13.294;2022-10-16T07:12:40;16.10;99.90
47090;DHT22;32840;52.516;13.294;2022-10-16T07:15:26;16.30;99.90
47090;DHT22;32840;52.516;13.294;2022-10-16T07:18:10;16.30;99.90
47090;DHT22;32840;52.516;13.294;2022-10-16T07:21:03;16.30;99.90
47090;DHT22;32840;52.516;13.294;2022-10-16T07:23:52;16.30;99.90
47090;DHT22;32840;52.516;13.294;2022-10-16T07:26:38;16.40;99.90
47090;DHT22;32840;52.516;13.294;2022-10-16T07:29:23;16.40;99.90
47090;DHT22;32840;52.516;13.294;2022-10-16T07:32:08;16.40;99.90
47090;DHT22;32840;52.516;13.294;2022-10-16T07:34:53;16.40;99.90
47090;DHT22;32840;52.516;13.294;2022-10-16T07:37:44;16.40;99.90
47090;DHT22;32840;52.516;13.294;2022-10-16T07:40:30;16.40;99.90
47090;DHT22;32840;52.516;13.294;2022-10-16T07:43:15;16.40;99.90
47090;DHT22;32840;52.516;13.294;2022-10-16T07:46:00;16.50;99.90
47090;DHT22;32840;52.516;13.294;2022-10-16T07:48:46;16.50;99.90
47090;DHT22;32840;52.516;13.294;2022-10-16T07:51:32;16.50;99.90
47090;DHT22;32840;52.516;13.294;2022-10-16T07:54:17;16.50;99.90
47090;DHT22;32840;52.516;13.294;2022-10-16T07:57:03;16.50;99.90
47090;DHT22;32840;52.516;13.294;2022-10-16T07:59:48;16.50;99.90
47090;DHT22;32840;52.516;13.294;2022-10-16T08:02:34;16.50;99.90
47090;DHT22;32840;52.516;13.294;2022-10-16T08:05:19;16.50;99.90
47090;DHT22;32840;52.516;13.294;2022-10-16T08:08:04;16.60;99.90
47090;DHT22;32840;52.516;13.294;2022-10-16T08:10:49;16.60;99.90
47090;DHT22;32840;52.516;13.294;2022-10-16T08:13:34;16.60;99.90
47090;DHT22;32840;52.516;13.294;2022-10-16T08:16:19;16.70;99.90
47090;DHT22;32840;52.516;13.294;2022-10-16T08:19:04;16.80;99.90
47090;DHT22;32840;52.516;13.294;2022-10-16T08:21:49;16.80;99.90
47090;DHT22;32840;52.516;13.294;2022-10-16T08:24:34;16.80;99.90
47090;DHT22;32840;52.516;13.294;2022-10-16T08:27:19;16.90;99.90
47090;DHT22;32840;52.516;13.294;2022-10-16T08:30:04;16.90;99.90
47090;DHT22;32840;52.516;13.294;2022-10-16T08:32:50;16.90;99.90
47090;DHT22;32840;52.516;13.294;2022-10-16T08:35:35;16.90;99.90
47090;DHT22;32840;52.516;13.294;2022-10-16T08:38:20;16.90;99.90
47090;DHT22;32840;52.516;13.294;2022-10-16T08:41:50;16.90;99.90
47090;DHT22;32840;52.516;13.294;2022-10-16T08:48:23;16.90;99.90
47090;DHT22;32840;52.516;13.294;2022-10-16T08:51:16;16.90;99.90
47090;DHT22;32840;52.516;13.294;2022-10-16T08:54:05;17.00;99.90
47090;DHT22;32840;52.516;13.294;2022-10-16T08:56:50;17.00;99.90
47090;DHT22;32840;52.516;13.294;2022-10-16T08:59:35;17.00;99.90
47090;DHT22;32840;52.516;13.294;2022-10-16T09:02:32;17.00;99.90
47090;DHT22;32840;52.516;13.294;2022-10-16T09:23:22;17.50;99.90
47090;DHT22;32840;52.516;13.294;2022-10-16T09:26:12;17.60;99.90
47090;DHT22;32840;52.516;13.294;2022-10-16T09:28:57;17.60;99.90
47090;DHT22;32840;52.516;13.294;2022-10-16T09:31:42;17.60;99.90
47090;DHT22;32840;52.516;13.294;2022-10-16T09:34:36;17.60;99.90
47090;DHT22;32840;52.516;13.294;2022-10-16T09:37:22;17.60;99.90
47090;DHT22;32840;52.516;13.294;2022-10-16T09:40:23;17.60;99.90
47090;DHT22;32840;52.516;13.294;2022-10-16T09:46:38;17.60;99.90
47090;DHT22;32840;52.516;13.294;2022-10-16T09:49:26;17.60;99.90
47090;DHT22;32840;52.516;13.294;2022-10-16T09:52:13;17.60;99.90
47090;DHT22;32840;52.516;13.294;2022-10-16T09:55:01;17.60;99.90
47090;DHT22;32840;52.516;13.294;2022-10-16T09:57:54;17.60;99.90
47090;DHT22;32840;52.516;13.294;2022-10-16T10:00:41;17.60;99.90
47090;DHT22;32840;52.516;13.294;2022-10-16T10:03:39;17.70;99.90
47090;DHT22;32840;52.516;13.294;2022-10-16T10:06:34;17.70;99.90
47090;DHT22;32840;52.516;13.294;2022-10-16T10:09:32;17.70;99.90
47090;DHT22;32840;52.516;13.294;2022-10-16T10:12:26;17.70;99.90
47090;DHT22;32840;52.516;13.294;2022-10-16T10:15:13;17.80;99.90
47090;DHT22;32840;52.516;13.294;2022-10-16T10:18:17;17.80;99.90
47090;DHT22;32840;52.516;13.294;2022-10-16T10:21:03;17.90;99.90
47090;DHT22;32840;52.516;13.294;2022-10-16T10:23:56;17.90;99.90
47090;DHT22;32840;52.516;13.294;2022-10-16T10:27:02;17.90;99.90
47090;DHT22;32840;52.516;13.294;2022-10-16T10:39:04;17.80;99.90
47090;DHT22;32840;52.516;13.294;2022-10-16T10:42:16;17.80;99.90
47090;DHT22;32840;52.516;13.294;2022-10-16T10:45:22;17.90;99.90
47090;DHT22;32840;52.516;13.294;2022-10-16T10:48:43;18.10;99.90
47090;DHT22;32840;52.516;13.294;2022-10-16T10:54:51;18.30;99.90
47090;DHT22;32840;52.516;13.294;2022-10-16T11:01:12;18.60;99.90
47090;DHT22;32840;52.516;13.294;2022-10-16T11:07:33;18.90;99.90
47090;DHT22;32840;52.516;13.294;2022-10-16T11:10:24;19.00;99.90
47090;DHT22;32840;52.516;13.294;2022-10-16T11:16:26;18.90;99.90
47090;DHT22;32840;52.516;13.294;2022-10-16T11:22:22;18.90;99.90
47090;DHT22;32840;52.516;13.294;2022-10-16T11:25:31;18.90;99.90
47090;DHT22;32840;52.516;13.294;2022-10-16T11:28:26;18.90;99.90
47090;DHT22;32840;52.516;13.294;2022-10-16T11:31:21;18.80;99.90
47090;DHT22;32840;52.516;13.294;2022-10-16T11:37:18;18.60;99.90
47090;DHT22;32840;52.516;13.294;2022-10-16T11:40:31;18.50;99.90
47090;DHT22;32840;52.516;13.294;2022-10-16T11:43:32;18.50;99.90
47090;DHT22;32840;52.516;13.294;2022-10-16T11:46:21;18.40;99.90
47090;DHT22;32840;52.516;13.294;2022-10-16T11:49:13;18.40;99.90
47090;DHT22;32840;52.516;13.294;2022-10-16T11:55:20;18.40;99.90
47090;DHT22;32840;52.516;13.294;2022-10-16T11:58:26;18.30;99.90
47090;DHT22;32840;52.516;13.294;2022-10-16T12:01:17;18.30;99.90
47090;DHT22;32840;52.516;13.294;2022-10-16T12:07:32;18.10;99.90
47090;DHT22;32840;52.516;13.294;2022-10-16T12:10:27;18.10;99.90
47090;DHT22;32840;52.516;13.294;2022-10-16T12:13:36;18.20;99.90
47090;DHT22;32840;52.516;13.294;2022-10-16T12:16:23;18.30;99.90
47090;DHT22;32840;52.516;13.294;2022-10-16T12:19:13;18.30;99.90
47090;DHT22;32840;52.516;13.294;2022-10-16T12:22:00;18.40;99.90
47090;DHT22;32840;52.516;13.294;2022-10-16T12:24:51;18.40;99.90
47090;DHT22;32840;52.516;13.294;2022-10-16T12:27:35;18.50;99.90
47090;DHT22;32840;52.516;13.294;2022-10-16T12:30:24;18.50;99.90
47090;DHT22;32840;52.516;13.294;2022-10-16T12:33:25;18.50;99.90
47090;DHT22;32840;52.516;13.294;2022-10-16T12:36:14;18.60;99.90
47090;DHT22;32840;52.516;13.294;2022-10-16T12:39:00;18.60;99.90
47090;DHT22;32840;52.516;13.294;2022-10-16T12:41:45;18.60;99.90
47090;DHT22;32840;52.516;13.294;2022-10-16T12:44:35;18.70;99.90
47090;DHT22;32840;52.516;13.294;2022-10-16T12:47:36;18.70;99.90
47090;DHT22;32840;52.516;13.294;2022-10-16T12:50:36;18.70;99.90
47090;DHT22;32840;52.516;13.294;2022-10-16T12:53:24;18.70;99.90
47090;DHT22;32840;52.516;13.294;2022-10-16T12:56:22;18.70;99.90
47090;DHT22;32840;52.516;13.294;2022-10-16T12:59:26;18.80;99.90
47090;DHT22;32840;52.516;13.294;2022-10-16T13:12:40;18.70;99.90
47090;DHT22;32840;52.516;13.294;2022-10-16T13:15:39;18.60;99.90
47090;DHT22;32840;52.516;13.294;2022-10-16T13:18:48;18.60;99.90
47090;DHT22;32840;52.516;13.294;2022-10-16T13:21:53;18.60;99.90
47090;DHT22;32840;52.516;13.294;2022-10-16T13:30:43;18.80;99.90
47090;DHT22;32840;52.516;13.294;2022-10-16T13:33:38;18.90;99.90
47090;DHT22;32840;52.516;13.294;2022-10-16T13:36:35;19.00;99.90
47090;DHT22;32840;52.516;13.294;2022-10-16T13:39:29;19.00;99.90
47090;DHT22;32840;52.516;13.294;2022-10-16T13:42:24;19.00;99.90
47090;DHT22;32840;52.516;13.294;2022-10-16T13:45:19;19.00;99.90
47090;DHT22;32840;52.516;13.294;2022-10-16T13:48:08;19.00;99.90
47090;DHT22;32840;52.516;13.294;2022-10-16T13:51:05;18.90;99.90
47090;DHT22;32840;52.516;13.294;2022-10-16T13:53:51;18.90;99.90
47090;DHT22;32840;52.516;13.294;2022-10-16T13:56:38;18.80;99.90
47090;DHT22;32840;52.516;13.294;2022-10-16T13:59:33;18.70;99.90
47090;DHT22;32840;52.516;13.294;2022-10-16T14:02:31;18.70;99.90
47090;DHT22;32840;52.516;13.294;2022-10-16T14:05:19;18.70;99.90
47090;DHT22;32840;52.516;13.294;2022-10-16T14:08:04;18.70;99.90
47090;DHT22;32840;52.516;13.294;2022-10-16T14:10:55;18.60;99.90
47090;DHT22;32840;52.516;13.294;2022-10-16T14:13:44;18.60;99.90
47090;DHT22;32840;52.516;13.294;2022-10-16T14:16:31;18.60;99.90
47090;DHT22;32840;52.516;13.294;2022-10-16T14:19:22;18.60;99.90
47090;DHT22;32840;52.516;13.294;2022-10-16T14:22:33;18.60;99.90
47090;DHT22;32840;52.516;13.294;2022-10-16T14:31:16;18.70;99.90
47090;DHT22;32840;52.516;13.294;2022-10-16T14:34:32;18.60;99.90
47090;DHT22;32840;52.516;13.294;2022-10-16T14:37:27;18.60;99.90
47090;DHT22;32840;52.516;13.294;2022-10-16T14:40:15;18.50;99.90
47090;DHT22;32840;52.516;13.294;2022-10-16T14:43:01;18.50;99.90
47090;DHT22;32840;52.516;13.294;2022-10-16T14:45:54;18.50;99.90
47090;DHT22;32840;52.516;13.294;2022-10-16T14:48:43;18.50;99.90
47090;DHT22;32840;52.516;13.294;2022-10-16T14:51:29;18.50;99.90
47090;DHT22;32840;52.516;13.294;2022-10-16T14:54:15;18.40;99.90
47090;DHT22;32840;52.516;13.294;2022-10-16T14:57:00;18.40;99.90
47090;DHT22;32840;52.516;13.294;2022-10-16T14:59:46;18.40;99.90
47090;DHT22;32840;52.516;13.294;2022-10-16T15:02:33;18.30;99.90
47090;DHT22;32840;52.516;13.294;2022-10-16T15:05:24;18.30;99.90
47090;DHT22;32840;52.516;13.294;2022-10-16T15:08:10;18.30;99.90
47090;DHT22;32840;52.516;13.294;2022-10-16T15:10:57;18.30;99.90
47090;DHT22;32840;52.516;13.294;2022-10-16T15:13:42;18.20;99.90
47090;DHT22;32840;52.516;13.294;2022-10-16T15:16:27;18.20;99.90
47090;DHT22;32840;52.516;13.294;2022-10-16T15:19:11;18.20;99.90
47090;DHT22;32840;52.516;13.294;2022-10-16T15:21:56;18.10;99.90
47090;DHT22;32840;52.516;13.294;2022-10-16T15:24:41;18.10;99.90
47090;DHT22;32840;52.516;13.294;2022-10-16T15:27:26;18.10;99.90
47090;DHT22;32840;52.516;13.294;2022-10-16T15:30:11;18.00;99.90
47090;DHT22;32840;52.516;13.294;2022-10-16T15:32:56;18.00;99.90
47090;DHT22;32840;52.516;13.294;2022-10-16T15:35:41;18.00;99.90
47090;DHT22;32840;52.516;13.294;2022-10-16T15:38:27;18.00;99.90
47090;DHT22;32840;52.516;13.294;2022-10-16T15:41:12;17.90;99.90
47090;DHT22;32840;52.516;13.294;2022-10-16T15:43:57;17.90;99.90
47090;DHT22;32840;52.516;13.294;2022-10-16T15:46:42;17.80;99.90
47090;DHT22;32840;52.516;13.294;2022-10-16T15:49:27;17.80;99.90
47090;DHT22;32840;52.516;13.294;2022-10-16T15:52:12;17.70;99.90
47090;DHT22;32840;52.516;13.294;2022-10-16T15:54:58;17.70;99.90
47090;DHT22;32840;52.516;13.294;2022-10-16T15:57:43;17.70;99.90
47090;DHT22;32840;52.516;13.294;2022-10-16T16:00:29;17.70;99.90
47090;DHT22;32840;52.516;13.294;2022-10-16T16:03:14;17.70;99.90
47090;DHT22;32840;52.516;13.294;2022-10-16T16:06:07;17.60;99.90
47090;DHT22;32840;52.516;13.294;2022-10-16T16:08:52;17.60;99.90
47090;DHT22;32840;52.516;13.294;2022-10-16T16:11:37;17.60;99.90
47090;DHT22;32840;52.516;13.294;2022-10-16T16:14:23;17.50;99.90
47090;DHT22;32840;52.516;13.294;2022-10-16T16:17:10;17.40;99.90
47090;DHT22;32840;52.516;13.294;2022-10-16T16:19:55;17.40;99.90
47090;DHT22;32840;52.516;13.294;2022-10-16T16:22:40;17.40;99.90
47090;DHT22;32840;52.516;13.294;2022-10-16T16:25:25;17.30;99.90
47090;DHT22;32840;52.516;13.294;2022-10-16T16:28:10;17.30;99.90
47090;DHT22;32840;52.516;13.294;2022-10-16T16:30:58;17.30;99.90
47090;DHT22;32840;52.516;13.294;2022-10-16T16:33:43;17.20;99.90
47090;DHT22;32840;52.516;13.294;2022-10-16T16:36:28;17.20;99.90
47090;DHT22;32840;52.516;13.294;2022-10-16T16:39:13;17.20;99.90
47090;DHT22;32840;52.516;13.294;2022-10-16T16:41:58;17.20;99.90
47090;DHT22;32840;52.516;13.294;2022-10-16T16:44:43;17.20;99.90
47090;DHT22;32840;52.516;13.294;2022-10-16T16:47:28;17.10;99.90
47090;DHT22;32840;52.516;13.294;2022-10-16T16:50:13;17.10;99.90
47090;DHT22;32840;52.516;13.294;2022-10-16T16:52:58;17.10;99.90
47090;DHT22;32840;52.516;13.294;2022-10-16T16:55:43;17.00;99.90
47090;DHT22;32840;52.516;13.294;2022-10-16T16:58:28;17.00;99.90
47090;DHT22;32840;52.516;13.294;2022-10-16T17:01:13;17.00;99.90
47090;DHT22;32840;52.516;13.294;2022-10-16T17:03:58;17.00;99.90
47090;DHT22;32840;52.516;13.294;2022-10-16T17:06:44;16.90;99.90
47090;DHT22;32840;52.516;13.294;2022-10-16T17:09:32;16.90;99.90
47090;DHT22;32840;52.516;13.294;2022-10-16T17:12:17;16.90;99.90
47090;DHT22;32840;52.516;13.294;2022-10-16T17:15:02;16.80;99.90
47090;DHT22;32840;52.516;13.294;2022-10-16T17:17:47;16.90;99.90
47090;DHT22;32840;52.516;13.294;2022-10-16T17:20:35;16.80;99.90
47090;DHT22;32840;52.516;13.294;2022-10-16T17:23:21;16.70;99.90
47090;DHT22;32840;52.516;13.294;2022-10-16T17:26:16;16.70;99.90
47090;DHT22;32840;52.516;13.294;2022-10-16T17:29:01;16.60;99.90
47090;DHT22;32840;52.516;13.294;2022-10-16T17:31:46;16.60;99.90
47090;DHT22;32840;52.516;13.294;2022-10-16T17:34:33;16.60;99.90
47090;DHT22;32840;52.516;13.294;2022-10-16T17:37:19;16.60;99.90
47090;DHT22;32840;52.516;13.294;2022-10-16T17:40:04;16.60;99.90
47090;DHT22;32840;52.516;13.294;2022-10-16T17:42:49;16.60;99.90
47090;DHT22;32840;52.516;13.294;2022-10-16T17:45:37;16.60;99.90
47090;DHT22;32840;52.516;13.294;2022-10-16T17:48:22;16.50;99.90
47090;DHT22;32840;52.516;13.294;2022-10-16T17:51:09;16.50;99.90
47090;DHT22;32840;52.516;13.294;2022-10-16T17:53:57;16.40;99.90
47090;DHT22;32840;52.516;13.294;2022-10-16T17:56:42;16.50;99.90
47090;DHT22;32840;52.516;13.294;2022-10-16T17:59:27;16.40;99.90
47090;DHT22;32840;52.516;13.294;2022-10-16T18:02:13;16.40;99.90
47090;DHT22;32840;52.516;13.294;2022-10-16T18:04:58;16.40;99.90
47090;DHT22;32840;52.516;13.294;2022-10-16T18:07:44;16.30;99.90
47090;DHT22;32840;52.516;13.294;2022-10-16T18:10:29;16.30;99.90
47090;DHT22;32840;52.516;13.294;2022-10-16T18:13:15;16.20;99.90
47090;DHT22;32840;52.516;13.294;2022-10-16T18:16:09;16.20;99.90
47090;DHT22;32840;52.516;13.294;2022-10-16T18:18:55;16.10;99.90
47090;DHT22;32840;52.516;13.294;2022-10-16T18:21:43;16.10;99.90
47090;DHT22;32840;52.516;13.294;2022-10-16T18:24:28;16.10;99.90
47090;DHT22;32840;52.516;13.294;2022-10-16T18:27:13;16.10;99.90
47090;DHT22;32840;52.516;13.294;2022-10-16T18:29:59;16.10;99.90
47090;DHT22;32840;52.516;13.294;2022-10-16T18:32:44;16.10;99.90
47090;DHT22;32840;52.516;13.294;2022-10-16T18:35:29;16.10;99.90
47090;DHT22;32840;52.516;13.294;2022-10-16T18:38:14;16.00;99.90
47090;DHT22;32840;52.516;13.294;2022-10-16T18:41:00;16.00;99.90
47090;DHT22;32840;52.516;13.294;2022-10-16T18:43:45;16.00;99.90
47090;DHT22;32840;52.516;13.294;2022-10-16T18:46:32;15.90;99.90
47090;DHT22;32840;52.516;13.294;2022-10-16T18:49:18;15.90;99.90
47090;DHT22;32840;52.516;13.294;2022-10-16T18:52:04;15.90;99.90
47090;DHT22;32840;52.516;13.294;2022-10-16T18:54:49;15.90;99.90
47090;DHT22;32840;52.516;13.294;2022-10-16T18:57:38;15.90;99.90
47090;DHT22;32840;52.516;13.294;2022-10-16T19:00:23;15.80;99.90
47090;DHT22;32840;52.516;13.294;2022-10-16T19:03:08;15.80;99.90